sensor_id;sensor_type;location;lat;lon;timestamp;P1;durP1;ratioP1;P2;durP2;ratioP2
71626;SDS011;59475;52.464;13.590;2023-07-16T00:00:56;7.75;;;4.13;;
71626;SDS011;59475;52.464;13.590;2023-07-16T00:03:22;5.37;;;4.10;;
71626;SDS011;59475;52.464;13.590;2023-07-16T00:05:49;5.83;;;4.67;;
71626;SDS011;59475;52.464;13.590;2023-07-16T00:08:16;5.53;;;4.40;;
71626;SDS011;59475;52.464;13.590;2023-07-16T00:10:41;8.13;;;5.00;;
71626;SDS011;59475;52.464;13.590;2023-07-16T00:13:06;7.10;;;4.90;;
71626;SDS011;59475;52.464;13.590;2023-07-16T00:15:32;5.50;;;5.00;;
71626;SDS011;59475;52.464;13.590;2023-07-16T00:17:57;6.03;;;5.07;;
71626;SDS011;59475;52.464;13.590;2023-07-16T00:20:22;5.13;;;4.37;;
71626;SDS011;59475;52.464;13.590;2023-07-16T00:22:51;5.63;;;4.47;;
71626;SDS011;59475;52.464;13.590;2023-07-16T00:25:16;9.93;;;4.30;;
71626;SDS011;59475;52.464;13.590;2023-07-16T00:27:42;5.80;;;4.20;;
71626;SDS011;59475;52.464;13.590;2023-07-16T00:30:07;5.68;;;3.95;;
71626;SDS011;59475;52.464;13.590;2023-07-16T00:32:33;7.47;;;4.30;;
71626;SDS011;59475;52.464;13.590;2023-07-16T00:35:00;5.90;;;4.45;;
71626;SDS011;59475;52.464;13.590;2023-07-16T00:37:26;4.78;;;4.20;;
71626;SDS011;59475;52.464;13.590;2023-07-16T00:39:51;4.50;;;3.83;;
71626;SDS011;59475;52.464;13.590;2023-07-16T00:42:17;5.57;;;4.50;;
71626;SDS011;59475;52.464;13.590;2023-07-16T00:44:42;7.25;;;4.15;;
71626;SDS011;59475;52.464;13.590;2023-07-16T00:47:08;6.80;;;4.37;;
71626;SDS011;59475;52.464;13.590;2023-07-16T00:49:33;5.97;;;4.20;;
71626;SDS011;59475;52.464;13.590;2023-07-16T00:51:59;5.80;;;4.37;;
71626;SDS011;59475;52.464;13.590;2023-07-16T00:54:25;4.75;;;4.25;;
71626;SDS011;59475;52.464;13.590;2023-07-16T01:00:13;6.47;;;4.10;;
71626;SDS011;59475;52.464;13.590;2023-07-16T01:02:38;5.93;;;3.85;;
71626;SDS011;59475;52.464;13.590;2023-07-16T01:05:04;5.13;;;4.63;;
71626;SDS011;59475;52.464;13.590;2023-07-16T01:07:29;5.55;;;4.68;;
71626;SDS011;59475;52.464;13.590;2023-07-16T01:09:57;6.00;;;4.40;;
71626;SDS011;59475;52.464;13.590;2023-07-16T01:12:23;5.50;;;3.97;;
71626;SDS011;59475;52.464;13.590;2023-07-16T01:14:51;4.88;;;4.38;;
71626;SDS011;59475;52.464;13.590;2023-07-16T01:17:17;8.73;;;4.82;;
71626;SDS011;59475;52.464;13.590;2023-07-16T01:19:42;7.77;;;5.23;;
71626;SDS011;59475;52.464;13.590;2023-07-16T01:30:23;6.75;;;6.00;;
71626;SDS011;59475;52.464;13.590;2023-07-16T01:32:51;9.20;;;5.53;;
71626;SDS011;59475;52.464;13.590;2023-07-16T01:35:18;8.45;;;6.15;;
71626;SDS011;59475;52.464;13.590;2023-07-16T01:37:44;8.82;;;5.63;;
71626;SDS011;59475;52.464;13.590;2023-07-16T01:40:10;4.63;;;4.13;;
71626;SDS011;59475;52.464;13.590;2023-07-16T01:42:36;6.60;;;5.13;;
71626;SDS011;59475;52.464;13.590;2023-07-16T01:45:01;6.45;;;4.75;;
71626;SDS011;59475;52.464;13.590;2023-07-16T01:47:35;8.63;;;4.97;;
71626;SDS011;59475;52.464;13.590;2023-07-16T01:50:09;6.32;;;4.65;;
71626;SDS011;59475;52.464;13.590;2023-07-16T01:52:35;5.45;;;4.38;;
71626;SDS011;59475;52.464;13.590;2023-07-16T01:55:00;7.97;;;5.03;;
71626;SDS011;59475;52.464;13.590;2023-07-16T01:57:26;6.73;;;4.50;;
71626;SDS011;59475;52.464;13.590;2023-07-16T01:59:51;6.50;;;3.93;;
71626;SDS011;59475;52.464;13.590;2023-07-16T02:02:16;7.90;;;4.13;;
71626;SDS011;59475;52.464;13.590;2023-07-16T02:04:42;7.30;;;5.27;;
71626;SDS011;59475;52.464;13.590;2023-07-16T02:07:07;5.40;;;4.33;;
71626;SDS011;59475;52.464;13.590;2023-07-16T02:09:33;5.67;;;4.60;;
71626;SDS011;59475;52.464;13.590;2023-07-16T02:11:59;6.32;;;4.20;;
71626;SDS011;59475;52.464;13.590;2023-07-16T02:14:24;6.53;;;4.40;;
71626;SDS011;59475;52.464;13.590;2023-07-16T02:16:50;5.17;;;4.00;;
71626;SDS011;59475;52.464;13.590;2023-07-16T02:19:15;5.00;;;3.60;;
71626;SDS011;59475;52.464;13.590;2023-07-16T02:21:40;4.30;;;3.38;;
71626;SDS011;59475;52.464;13.590;2023-07-16T02:27:27;5.82;;;3.45;;
71626;SDS011;59475;52.464;13.590;2023-07-16T02:29:53;5.30;;;3.47;;
71626;SDS011;59475;52.464;13.590;2023-07-16T02:32:18;6.93;;;4.07;;
71626;SDS011;59475;52.464;13.590;2023-07-16T02:34:44;6.63;;;3.80;;
71626;SDS011;59475;52.464;13.590;2023-07-16T02:37:09;4.45;;;2.97;;
71626;SDS011;59475;52.464;13.590;2023-07-16T02:39:35;5.70;;;3.50;;
71626;SDS011;59475;52.464;13.590;2023-07-16T02:42:00;4.57;;;3.10;;
71626;SDS011;59475;52.464;13.590;2023-07-16T02:44:25;6.67;;;2.93;;
71626;SDS011;59475;52.464;13.590;2023-07-16T02:46:51;6.18;;;3.13;;
71626;SDS011;59475;52.464;13.590;2023-07-16T02:49:16;5.77;;;3.07;;
71626;SDS011;59475;52.464;13.590;2023-07-16T02:51:42;3.63;;;3.10;;
71626;SDS011;59475;52.464;13.590;2023-07-16T02:54:07;3.57;;;2.70;;
71626;SDS011;59475;52.464;13.590;2023-07-16T02:56:33;5.37;;;2.80;;
71626;SDS011;59475;52.464;13.590;2023-07-16T02:58:58;5.47;;;3.10;;
71626;SDS011;59475;52.464;13.590;2023-07-16T03:01:24;3.40;;;2.90;;
71626;SDS011;59475;52.464;13.590;2023-07-16T03:03:49;5.25;;;2.80;;
71626;SDS011;59475;52.464;13.590;2023-07-16T03:06:14;3.63;;;2.63;;
71626;SDS011;59475;52.464;13.590;2023-07-16T03:08:40;3.40;;;2.90;;
71626;SDS011;59475;52.464;13.590;2023-07-16T03:11:05;3.57;;;2.37;;
71626;SDS011;59475;52.464;13.590;2023-07-16T03:13:31;5.40;;;3.23;;
71626;SDS011;59475;52.464;13.590;2023-07-16T03:15:56;4.95;;;3.10;;
71626;SDS011;59475;52.464;13.590;2023-07-16T03:18:21;3.30;;;2.63;;
71626;SDS011;59475;52.464;13.590;2023-07-16T03:20:47;4.40;;;2.83;;
71626;SDS011;59475;52.464;13.590;2023-07-16T03:23:13;3.30;;;2.60;;
71626;SDS011;59475;52.464;13.590;2023-07-16T03:25:38;4.00;;;2.77;;
71626;SDS011;59475;52.464;13.590;2023-07-16T03:28:03;4.17;;;2.47;;
71626;SDS011;59475;52.464;13.590;2023-07-16T03:30:32;4.73;;;2.97;;
71626;SDS011;59475;52.464;13.590;2023-07-16T03:32:58;4.90;;;2.63;;
71626;SDS011;59475;52.464;13.590;2023-07-16T03:35:23;3.97;;;2.30;;
71626;SDS011;59475;52.464;13.590;2023-07-16T03:37:48;5.07;;;2.60;;
71626;SDS011;59475;52.464;13.590;2023-07-16T03:40:14;4.03;;;2.40;;
71626;SDS011;59475;52.464;13.590;2023-07-16T03:42:41;3.85;;;2.55;;
71626;SDS011;59475;52.464;13.590;2023-07-16T03:45:08;4.40;;;2.97;;
71626;SDS011;59475;52.464;13.590;2023-07-16T03:47:34;4.22;;;2.75;;
71626;SDS011;59475;52.464;13.590;2023-07-16T03:49:59;4.17;;;2.40;;
71626;SDS011;59475;52.464;13.590;2023-07-16T03:52:25;3.17;;;2.30;;
71626;SDS011;59475;52.464;13.590;2023-07-16T03:54:51;4.30;;;2.40;;
71626;SDS011;59475;52.464;13.590;2023-07-16T03:57:17;3.30;;;2.50;;
71626;SDS011;59475;52.464;13.590;2023-07-16T03:59:43;4.18;;;2.70;;
71626;SDS011;59475;52.464;13.590;2023-07-16T04:02:08;4.93;;;3.03;;
71626;SDS011;59475;52.464;13.590;2023-07-16T04:04:33;6.80;;;3.30;;
71626;SDS011;59475;52.464;13.590;2023-07-16T04:06:59;3.45;;;2.80;;
71626;SDS011;59475;52.464;13.590;2023-07-16T04:09:25;4.40;;;2.77;;
71626;SDS011;59475;52.464;13.590;2023-07-16T04:11:50;5.37;;;3.57;;
71626;SDS011;59475;52.464;13.590;2023-07-16T04:14:16;3.87;;;2.87;;
71626;SDS011;59475;52.464;13.590;2023-07-16T04:16:41;5.28;;;3.28;;
71626;SDS011;59475;52.464;13.590;2023-07-16T04:19:06;4.57;;;3.00;;
71626;SDS011;59475;52.464;13.590;2023-07-16T04:21:33;6.63;;;3.40;;
71626;SDS011;59475;52.464;13.590;2023-07-16T04:23:58;3.53;;;3.00;;
71626;SDS011;59475;52.464;13.590;2023-07-16T04:26:23;3.93;;;2.97;;
71626;SDS011;59475;52.464;13.590;2023-07-16T04:28:49;4.83;;;3.50;;
71626;SDS011;59475;52.464;13.590;2023-07-16T04:31:14;7.00;;;3.27;;
71626;SDS011;59475;52.464;13.590;2023-07-16T04:33:40;4.20;;;3.47;;
71626;SDS011;59475;52.464;13.590;2023-07-16T04:36:05;6.27;;;3.53;;
71626;SDS011;59475;52.464;13.590;2023-07-16T04:38:30;7.03;;;3.63;;
71626;SDS011;59475;52.464;13.590;2023-07-16T04:40:56;6.67;;;4.17;;
71626;SDS011;59475;52.464;13.590;2023-07-16T04:43:21;6.97;;;4.23;;
71626;SDS011;59475;52.464;13.590;2023-07-16T04:45:47;7.63;;;4.30;;
71626;SDS011;59475;52.464;13.590;2023-07-16T04:48:12;6.33;;;5.17;;
71626;SDS011;59475;52.464;13.590;2023-07-16T04:50:38;7.70;;;4.85;;
71626;SDS011;59475;52.464;13.590;2023-07-16T04:53:04;9.17;;;5.10;;
71626;SDS011;59475;52.464;13.590;2023-07-16T04:55:29;7.37;;;4.50;;
71626;SDS011;59475;52.464;13.590;2023-07-16T04:58:00;6.70;;;4.90;;
71626;SDS011;59475;52.464;13.590;2023-07-16T05:00:25;5.43;;;4.80;;
71626;SDS011;59475;52.464;13.590;2023-07-16T05:02:51;8.40;;;5.33;;
71626;SDS011;59475;52.464;13.590;2023-07-16T05:05:16;7.90;;;5.33;;
71626;SDS011;59475;52.464;13.590;2023-07-16T05:07:41;7.33;;;5.00;;
71626;SDS011;59475;52.464;13.590;2023-07-16T05:10:07;7.63;;;5.20;;
71626;SDS011;59475;52.464;13.590;2023-07-16T05:12:33;6.47;;;5.30;;
71626;SDS011;59475;52.464;13.590;2023-07-16T05:14:58;12.00;;;5.60;;
71626;SDS011;59475;52.464;13.590;2023-07-16T05:17:23;6.33;;;5.33;;
71626;SDS011;59475;52.464;13.590;2023-07-16T05:19:49;8.38;;;5.07;;
71626;SDS011;59475;52.464;13.590;2023-07-16T05:22:14;7.90;;;5.40;;
71626;SDS011;59475;52.464;13.590;2023-07-16T05:24:39;7.70;;;5.20;;
71626;SDS011;59475;52.464;13.590;2023-07-16T05:27:05;6.27;;;4.93;;
71626;SDS011;59475;52.464;13.590;2023-07-16T05:29:30;7.10;;;5.37;;
71626;SDS011;59475;52.464;13.590;2023-07-16T05:31:56;6.43;;;4.40;;
71626;SDS011;59475;52.464;13.590;2023-07-16T05:34:21;7.03;;;4.30;;
71626;SDS011;59475;52.464;13.590;2023-07-16T05:36:47;9.57;;;4.50;;
71626;SDS011;59475;52.464;13.590;2023-07-16T05:39:12;6.43;;;4.05;;
71626;SDS011;59475;52.464;13.590;2023-07-16T05:41:41;5.40;;;4.00;;
71626;SDS011;59475;52.464;13.590;2023-07-16T05:44:06;4.22;;;3.53;;
71626;SDS011;59475;52.464;13.590;2023-07-16T05:46:33;4.65;;;3.55;;
71626;SDS011;59475;52.464;13.590;2023-07-16T05:48:59;3.70;;;3.27;;
71626;SDS011;59475;52.464;13.590;2023-07-16T05:51:24;4.67;;;3.67;;
71626;SDS011;59475;52.464;13.590;2023-07-16T05:53:50;5.27;;;3.50;;
71626;SDS011;59475;52.464;13.590;2023-07-16T05:56:15;6.97;;;3.60;;
71626;SDS011;59475;52.464;13.590;2023-07-16T05:58:41;3.38;;;3.03;;
71626;SDS011;59475;52.464;13.590;2023-07-16T06:01:06;9.93;;;3.97;;
71626;SDS011;59475;52.464;13.590;2023-07-16T06:03:31;4.90;;;3.03;;
71626;SDS011;59475;52.464;13.590;2023-07-16T06:05:57;4.23;;;3.00;;
71626;SDS011;59475;52.464;13.590;2023-07-16T06:08:22;6.85;;;3.03;;
71626;SDS011;59475;52.464;13.590;2023-07-16T06:10:49;4.43;;;3.20;;
71626;SDS011;59475;52.464;13.590;2023-07-16T06:13:15;4.07;;;2.90;;
71626;SDS011;59475;52.464;13.590;2023-07-16T06:15:40;5.67;;;2.90;;
71626;SDS011;59475;52.464;13.590;2023-07-16T06:18:06;3.50;;;3.13;;
71626;SDS011;59475;52.464;13.590;2023-07-16T06:23:53;4.80;;;2.93;;
71626;SDS011;59475;52.464;13.590;2023-07-16T06:26:18;4.75;;;3.00;;
71626;SDS011;59475;52.464;13.590;2023-07-16T06:28:43;3.70;;;2.80;;
71626;SDS011;59475;52.464;13.590;2023-07-16T06:31:09;6.37;;;3.50;;
71626;SDS011;59475;52.464;13.590;2023-07-16T06:33:34;4.80;;;3.07;;
71626;SDS011;59475;52.464;13.590;2023-07-16T06:39:27;4.90;;;2.88;;
71626;SDS011;59475;52.464;13.590;2023-07-16T06:41:53;5.47;;;2.87;;
71626;SDS011;59475;52.464;13.590;2023-07-16T06:44:18;3.10;;;2.67;;
71626;SDS011;59475;52.464;13.590;2023-07-16T06:46:43;3.80;;;3.00;;
71626;SDS011;59475;52.464;13.590;2023-07-16T06:49:09;3.20;;;2.40;;
71626;SDS011;59475;52.464;13.590;2023-07-16T06:51:34;3.43;;;2.60;;
71626;SDS011;59475;52.464;13.590;2023-07-16T06:57:21;5.43;;;2.60;;
71626;SDS011;59475;52.464;13.590;2023-07-16T06:59:47;8.32;;;2.67;;
71626;SDS011;59475;52.464;13.590;2023-07-16T07:02:13;6.60;;;2.73;;
71626;SDS011;59475;52.464;13.590;2023-07-16T07:04:38;6.50;;;2.83;;
71626;SDS011;59475;52.464;13.590;2023-07-16T07:07:04;4.38;;;2.75;;
71626;SDS011;59475;52.464;13.590;2023-07-16T07:09:29;4.10;;;2.40;;
71626;SDS011;59475;52.464;13.590;2023-07-16T07:15:16;2.90;;;2.40;;
71626;SDS011;59475;52.464;13.590;2023-07-16T07:17:41;4.07;;;2.67;;
71626;SDS011;59475;52.464;13.590;2023-07-16T07:20:08;3.57;;;2.60;;
71626;SDS011;59475;52.464;13.590;2023-07-16T07:22:34;4.15;;;2.38;;
71626;SDS011;59475;52.464;13.590;2023-07-16T07:24:59;2.87;;;2.40;;
71626;SDS011;59475;52.464;13.590;2023-07-16T07:27:25;4.80;;;2.77;;
71626;SDS011;59475;52.464;13.590;2023-07-16T07:29:50;4.20;;;2.90;;
71626;SDS011;59475;52.464;13.590;2023-07-16T07:32:18;4.30;;;2.60;;
71626;SDS011;59475;52.464;13.590;2023-07-16T07:34:44;5.07;;;2.53;;
71626;SDS011;59475;52.464;13.590;2023-07-16T07:37:10;2.90;;;2.13;;
71626;SDS011;59475;52.464;13.590;2023-07-16T07:39:35;3.30;;;2.60;;
71626;SDS011;59475;52.464;13.590;2023-07-16T07:42:00;5.23;;;2.53;;
71626;SDS011;59475;52.464;13.590;2023-07-16T07:44:26;6.67;;;2.43;;
71626;SDS011;59475;52.464;13.590;2023-07-16T07:46:51;4.63;;;2.30;;
71626;SDS011;59475;52.464;13.590;2023-07-16T07:49:16;3.93;;;2.80;;
71626;SDS011;59475;52.464;13.590;2023-07-16T07:55:04;6.40;;;2.47;;
71626;SDS011;59475;52.464;13.590;2023-07-16T07:57:29;3.47;;;2.33;;
71626;SDS011;59475;52.464;13.590;2023-07-16T07:59:55;5.77;;;2.60;;
71626;SDS011;59475;52.464;13.590;2023-07-16T08:02:23;6.20;;;2.97;;
71626;SDS011;59475;52.464;13.590;2023-07-16T08:04:55;4.22;;;2.42;;
71626;SDS011;59475;52.464;13.590;2023-07-16T08:07:21;5.43;;;2.53;;
71626;SDS011;59475;52.464;13.590;2023-07-16T08:09:47;3.33;;;2.47;;
71626;SDS011;59475;52.464;13.590;2023-07-16T08:15:34;4.50;;;2.60;;
71626;SDS011;59475;52.464;13.590;2023-07-16T08:18:00;4.43;;;2.77;;
71626;SDS011;59475;52.464;13.590;2023-07-16T08:20:26;4.33;;;2.60;;
71626;SDS011;59475;52.464;13.590;2023-07-16T08:22:51;4.78;;;2.40;;
71626;SDS011;59475;52.464;13.590;2023-07-16T08:25:17;5.03;;;2.40;;
71626;SDS011;59475;52.464;13.590;2023-07-16T08:27:42;4.97;;;2.73;;
71626;SDS011;59475;52.464;13.590;2023-07-16T08:30:08;5.60;;;2.60;;
71626;SDS011;59475;52.464;13.590;2023-07-16T08:32:33;2.92;;;2.30;;
71626;SDS011;59475;52.464;13.590;2023-07-16T08:34:59;3.07;;;2.20;;
71626;SDS011;59475;52.464;13.590;2023-07-16T08:37:24;5.65;;;2.53;;
71626;SDS011;59475;52.464;13.590;2023-07-16T08:39:53;3.87;;;2.93;;
71626;SDS011;59475;52.464;13.590;2023-07-16T08:42:21;3.95;;;2.30;;
71626;SDS011;59475;52.464;13.590;2023-07-16T08:44:49;2.93;;;2.60;;
71626;SDS011;59475;52.464;13.590;2023-07-16T08:47:15;3.05;;;2.20;;
71626;SDS011;59475;52.464;13.590;2023-07-16T08:49:41;3.73;;;1.97;;
71626;SDS011;59475;52.464;13.590;2023-07-16T08:52:23;2.50;;;2.00;;
71626;SDS011;59475;52.464;13.590;2023-07-16T08:54:51;3.78;;;1.80;;
71626;SDS011;59475;52.464;13.590;2023-07-16T09:00:38;3.35;;;1.90;;
71626;SDS011;59475;52.464;13.590;2023-07-16T09:03:03;3.30;;;1.93;;
71626;SDS011;59475;52.464;13.590;2023-07-16T09:05:29;3.20;;;2.13;;
71626;SDS011;59475;52.464;13.590;2023-07-16T09:07:55;4.70;;;2.10;;
71626;SDS011;59475;52.464;13.590;2023-07-16T09:10:20;3.83;;;2.00;;
71626;SDS011;59475;52.464;13.590;2023-07-16T09:12:46;3.17;;;1.90;;
71626;SDS011;59475;52.464;13.590;2023-07-16T09:15:13;3.27;;;1.87;;
71626;SDS011;59475;52.464;13.590;2023-07-16T09:17:41;4.53;;;2.22;;
71626;SDS011;59475;52.464;13.590;2023-07-16T09:20:07;2.93;;;1.70;;
71626;SDS011;59475;52.464;13.590;2023-07-16T09:22:33;3.17;;;1.67;;
71626;SDS011;59475;52.464;13.590;2023-07-16T09:28:21;2.78;;;1.55;;
71626;SDS011;59475;52.464;13.590;2023-07-16T09:30:47;3.07;;;1.53;;
71626;SDS011;59475;52.464;13.590;2023-07-16T09:33:16;5.30;;;2.03;;
71626;SDS011;59475;52.464;13.590;2023-07-16T09:35:43;2.35;;;1.90;;
71626;SDS011;59475;52.464;13.590;2023-07-16T09:41:31;4.43;;;2.03;;
71626;SDS011;59475;52.464;13.590;2023-07-16T09:43:56;2.40;;;1.90;;
71626;SDS011;59475;52.464;13.590;2023-07-16T09:46:22;2.73;;;1.50;;
71626;SDS011;59475;52.464;13.590;2023-07-16T09:48:47;2.70;;;1.60;;
71626;SDS011;59475;52.464;13.590;2023-07-16T09:51:13;5.30;;;1.93;;
71626;SDS011;59475;52.464;13.590;2023-07-16T09:53:40;3.30;;;1.60;;
71626;SDS011;59475;52.464;13.590;2023-07-16T09:56:10;3.28;;;1.80;;
71626;SDS011;59475;52.464;13.590;2023-07-16T09:58:38;2.53;;;1.45;;
71626;SDS011;59475;52.464;13.590;2023-07-16T10:01:04;2.63;;;2.03;;
71626;SDS011;59475;52.464;13.590;2023-07-16T10:03:30;3.13;;;1.57;;
71626;SDS011;59475;52.464;13.590;2023-07-16T10:06:05;6.53;;;1.80;;
71626;SDS011;59475;52.464;13.590;2023-07-16T10:08:33;3.37;;;1.60;;
71626;SDS011;59475;52.464;13.590;2023-07-16T10:11:02;4.10;;;1.85;;
71626;SDS011;59475;52.464;13.590;2023-07-16T10:13:28;3.85;;;1.65;;
71626;SDS011;59475;52.464;13.590;2023-07-16T10:15:55;2.53;;;1.90;;
71626;SDS011;59475;52.464;13.590;2023-07-16T10:18:27;3.42;;;2.17;;
71626;SDS011;59475;52.464;13.590;2023-07-16T10:20:59;3.83;;;2.30;;
71626;SDS011;59475;52.464;13.590;2023-07-16T10:23:36;5.00;;;1.90;;
71626;SDS011;59475;52.464;13.590;2023-07-16T10:26:05;3.42;;;1.70;;
71626;SDS011;59475;52.464;13.590;2023-07-16T10:28:36;2.53;;;1.80;;
71626;SDS011;59475;52.464;13.590;2023-07-16T10:31:02;3.72;;;1.83;;
71626;SDS011;59475;52.464;13.590;2023-07-16T10:33:28;2.90;;;1.87;;
71626;SDS011;59475;52.464;13.590;2023-07-16T10:35:55;5.13;;;2.07;;
71626;SDS011;59475;52.464;13.590;2023-07-16T10:38:23;4.05;;;1.77;;
71626;SDS011;59475;52.464;13.590;2023-07-16T10:40:49;4.23;;;1.90;;
71626;SDS011;59475;52.464;13.590;2023-07-16T10:43:14;3.65;;;2.08;;
71626;SDS011;59475;52.464;13.590;2023-07-16T10:45:40;3.43;;;1.60;;
71626;SDS011;59475;52.464;13.590;2023-07-16T10:48:06;2.75;;;1.77;;
71626;SDS011;59475;52.464;13.590;2023-07-16T10:50:32;2.97;;;1.90;;
71626;SDS011;59475;52.464;13.590;2023-07-16T10:56:20;3.28;;;1.70;;
71626;SDS011;59475;52.464;13.590;2023-07-16T10:58:45;4.17;;;2.00;;
71626;SDS011;59475;52.464;13.590;2023-07-16T11:01:11;2.90;;;2.00;;
71626;SDS011;59475;52.464;13.590;2023-07-16T11:03:37;3.28;;;2.00;;
71626;SDS011;59475;52.464;13.590;2023-07-16T11:06:06;4.57;;;2.10;;
71626;SDS011;59475;52.464;13.590;2023-07-16T11:08:32;5.32;;;1.80;;
71626;SDS011;59475;52.464;13.590;2023-07-16T11:10:58;3.00;;;1.70;;
71626;SDS011;59475;52.464;13.590;2023-07-16T11:13:27;4.00;;;1.73;;
71626;SDS011;59475;52.464;13.590;2023-07-16T11:15:53;2.40;;;1.60;;
71626;SDS011;59475;52.464;13.590;2023-07-16T11:18:21;3.23;;;1.93;;
71626;SDS011;59475;52.464;13.590;2023-07-16T11:20:50;2.75;;;1.70;;
71626;SDS011;59475;52.464;13.590;2023-07-16T11:23:17;4.28;;;2.00;;
71626;SDS011;59475;52.464;13.590;2023-07-16T11:25:46;3.27;;;1.80;;
71626;SDS011;59475;52.464;13.590;2023-07-16T11:28:14;3.50;;;1.95;;
71626;SDS011;59475;52.464;13.590;2023-07-16T11:30:40;2.78;;;1.92;;
71626;SDS011;59475;52.464;13.590;2023-07-16T11:33:12;4.43;;;2.27;;
71626;SDS011;59475;52.464;13.590;2023-07-16T11:35:38;2.40;;;1.75;;
71626;SDS011;59475;52.464;13.590;2023-07-16T11:38:05;4.72;;;1.60;;
71626;SDS011;59475;52.464;13.590;2023-07-16T11:40:31;4.32;;;1.90;;
71626;SDS011;59475;52.464;13.590;2023-07-16T11:43:07;2.93;;;1.77;;
71626;SDS011;59475;52.464;13.590;2023-07-16T11:45:33;3.20;;;1.60;;
71626;SDS011;59475;52.464;13.590;2023-07-16T11:47:59;3.97;;;1.97;;
71626;SDS011;59475;52.464;13.590;2023-07-16T11:50:25;2.90;;;1.90;;
71626;SDS011;59475;52.464;13.590;2023-07-16T11:52:54;2.53;;;1.90;;
71626;SDS011;59475;52.464;13.590;2023-07-16T11:55:20;2.17;;;1.50;;
71626;SDS011;59475;52.464;13.590;2023-07-16T11:57:45;4.28;;;1.90;;
71626;SDS011;59475;52.464;13.590;2023-07-16T12:00:11;2.23;;;1.07;;
71626;SDS011;59475;52.464;13.590;2023-07-16T12:02:37;3.77;;;1.60;;
71626;SDS011;59475;52.464;13.590;2023-07-16T12:05:02;3.22;;;2.00;;
71626;SDS011;59475;52.464;13.590;2023-07-16T12:07:35;3.85;;;2.00;;
71626;SDS011;59475;52.464;13.590;2023-07-16T12:10:05;3.80;;;1.87;;
71626;SDS011;59475;52.464;13.590;2023-07-16T12:12:32;6.40;;;1.85;;
71626;SDS011;59475;52.464;13.590;2023-07-16T12:18:20;2.03;;;1.38;;
71626;SDS011;59475;52.464;13.590;2023-07-16T12:20:45;4.70;;;1.83;;
71626;SDS011;59475;52.464;13.590;2023-07-16T12:23:11;3.57;;;1.90;;
71626;SDS011;59475;52.464;13.590;2023-07-16T12:25:36;3.07;;;1.70;;
71626;SDS011;59475;52.464;13.590;2023-07-16T12:28:02;3.90;;;1.50;;
71626;SDS011;59475;52.464;13.590;2023-07-16T12:30:27;4.93;;;1.60;;
71626;SDS011;59475;52.464;13.590;2023-07-16T12:32:52;2.80;;;1.40;;
71626;SDS011;59475;52.464;13.590;2023-07-16T12:35:18;3.60;;;1.50;;
71626;SDS011;59475;52.464;13.590;2023-07-16T12:37:43;4.47;;;1.50;;
71626;SDS011;59475;52.464;13.590;2023-07-16T12:40:09;2.83;;;2.07;;
71626;SDS011;59475;52.464;13.590;2023-07-16T12:42:34;3.57;;;1.90;;
71626;SDS011;59475;52.464;13.590;2023-07-16T12:45:00;5.80;;;1.33;;
71626;SDS011;59475;52.464;13.590;2023-07-16T12:47:26;4.72;;;2.08;;
71626;SDS011;59475;52.464;13.590;2023-07-16T12:49:52;2.83;;;1.37;;
71626;SDS011;59475;52.464;13.590;2023-07-16T12:55:39;2.60;;;1.88;;
71626;SDS011;59475;52.464;13.590;2023-07-16T12:58:04;2.90;;;1.77;;
71626;SDS011;59475;52.464;13.590;2023-07-16T13:00:29;3.63;;;1.57;;
71626;SDS011;59475;52.464;13.590;2023-07-16T13:02:55;6.20;;;1.63;;
71626;SDS011;59475;52.464;13.590;2023-07-16T13:05:20;8.50;;;1.50;;
71626;SDS011;59475;52.464;13.590;2023-07-16T13:07:46;4.60;;;1.73;;
71626;SDS011;59475;52.464;13.590;2023-07-16T13:10:11;3.20;;;1.50;;
71626;SDS011;59475;52.464;13.590;2023-07-16T13:12:37;5.72;;;1.60;;
71626;SDS011;59475;52.464;13.590;2023-07-16T13:15:02;3.20;;;1.40;;
71626;SDS011;59475;52.464;13.590;2023-07-16T13:17:28;2.37;;;1.47;;
71626;SDS011;59475;52.464;13.590;2023-07-16T13:19:53;3.23;;;1.13;;
71626;SDS011;59475;52.464;13.590;2023-07-16T13:22:18;2.93;;;1.30;;
71626;SDS011;59475;52.464;13.590;2023-07-16T13:24:44;2.43;;;1.40;;
71626;SDS011;59475;52.464;13.590;2023-07-16T13:27:09;2.10;;;1.13;;
71626;SDS011;59475;52.464;13.590;2023-07-16T13:29:44;1.85;;;1.10;;
71626;SDS011;59475;52.464;13.590;2023-07-16T13:32:09;4.97;;;1.50;;
71626;SDS011;59475;52.464;13.590;2023-07-16T13:34:34;3.80;;;1.63;;
71626;SDS011;59475;52.464;13.590;2023-07-16T13:37:00;4.80;;;1.60;;
71626;SDS011;59475;52.464;13.590;2023-07-16T13:39:25;3.40;;;1.53;;
71626;SDS011;59475;52.464;13.590;2023-07-16T13:41:50;4.60;;;1.35;;
71626;SDS011;59475;52.464;13.590;2023-07-16T13:44:16;5.07;;;1.30;;
71626;SDS011;59475;52.464;13.590;2023-07-16T13:46:41;2.20;;;1.57;;
71626;SDS011;59475;52.464;13.590;2023-07-16T13:49:08;5.28;;;1.60;;
71626;SDS011;59475;52.464;13.590;2023-07-16T13:51:33;4.43;;;1.50;;
71626;SDS011;59475;52.464;13.590;2023-07-16T13:53:58;2.67;;;1.50;;
71626;SDS011;59475;52.464;13.590;2023-07-16T13:56:24;2.73;;;1.60;;
71626;SDS011;59475;52.464;13.590;2023-07-16T13:58:49;4.93;;;1.73;;
71626;SDS011;59475;52.464;13.590;2023-07-16T14:01:15;6.40;;;1.73;;
71626;SDS011;59475;52.464;13.590;2023-07-16T14:03:41;4.20;;;1.77;;
71626;SDS011;59475;52.464;13.590;2023-07-16T14:06:06;4.05;;;1.42;;
71626;SDS011;59475;52.464;13.590;2023-07-16T14:08:32;2.47;;;1.50;;
71626;SDS011;59475;52.464;13.590;2023-07-16T14:10:59;1.92;;;1.13;;
71626;SDS011;59475;52.464;13.590;2023-07-16T14:13:24;4.13;;;1.50;;
71626;SDS011;59475;52.464;13.590;2023-07-16T14:15:50;4.90;;;1.50;;
71626;SDS011;59475;52.464;13.590;2023-07-16T14:18:15;3.33;;;1.38;;
71626;SDS011;59475;52.464;13.590;2023-07-16T14:20:41;4.63;;;1.47;;
71626;SDS011;59475;52.464;13.590;2023-07-16T14:23:06;3.30;;;1.40;;
71626;SDS011;59475;52.464;13.590;2023-07-16T14:25:31;4.50;;;1.50;;
71626;SDS011;59475;52.464;13.590;2023-07-16T14:27:57;4.27;;;1.70;;
71626;SDS011;59475;52.464;13.590;2023-07-16T14:30:22;2.90;;;1.60;;
71626;SDS011;59475;52.464;13.590;2023-07-16T14:32:47;4.87;;;1.63;;
71626;SDS011;59475;52.464;13.590;2023-07-16T14:35:13;2.23;;;1.40;;
71626;SDS011;59475;52.464;13.590;2023-07-16T14:37:38;5.10;;;1.40;;
71626;SDS011;59475;52.464;13.590;2023-07-16T14:40:04;3.65;;;1.40;;
71626;SDS011;59475;52.464;13.590;2023-07-16T14:42:33;4.00;;;1.40;;
71626;SDS011;59475;52.464;13.590;2023-07-16T14:44:59;4.90;;;1.40;;
71626;SDS011;59475;52.464;13.590;2023-07-16T14:47:24;2.67;;;1.00;;
71626;SDS011;59475;52.464;13.590;2023-07-16T14:49:50;4.50;;;1.80;;
71626;SDS011;59475;52.464;13.590;2023-07-16T14:52:15;2.85;;;1.23;;
71626;SDS011;59475;52.464;13.590;2023-07-16T14:54:41;2.77;;;1.20;;
71626;SDS011;59475;52.464;13.590;2023-07-16T14:57:06;3.20;;;1.40;;
71626;SDS011;59475;52.464;13.590;2023-07-16T14:59:31;3.40;;;1.30;;
71626;SDS011;59475;52.464;13.590;2023-07-16T15:01:57;5.33;;;1.70;;
71626;SDS011;59475;52.464;13.590;2023-07-16T15:04:22;4.30;;;1.58;;
71626;SDS011;59475;52.464;13.590;2023-07-16T15:06:47;3.17;;;1.37;;
71626;SDS011;59475;52.464;13.590;2023-07-16T15:09:14;3.25;;;1.27;;
71626;SDS011;59475;52.464;13.590;2023-07-16T15:11:40;3.30;;;1.50;;
71626;SDS011;59475;52.464;13.590;2023-07-16T15:14:05;3.10;;;1.70;;
71626;SDS011;59475;52.464;13.590;2023-07-16T15:19:52;3.17;;;1.45;;
71626;SDS011;59475;52.464;13.590;2023-07-16T15:22:18;2.40;;;1.23;;
71626;SDS011;59475;52.464;13.590;2023-07-16T15:24:45;4.18;;;1.35;;